Time;durP1;ratioP1;P1;durP2;ratioP2;P2;SDS_P1;SDS_P2;PMS_P1;PMS_P2;Temp;Humidity;BMP_temperature;BMP_pressure;BME280_temperature;BME280_humidity;BME280_pressure;Samples;Min_cycle;Max_cycle;Signal;HPM_P1;HPM_P2
2023/07/27 00:01:56;;;;;;;1999.90;999.90;;;;;;;25.13;42.25;101008.47;5071344;28;20075;-70
2023/07/27 00:04:22;;;;;;;1999.90;999.90;;;;;;;25.10;42.47;101000.66;5053968;28;20396;-69
2023/07/27 00:06:48;;;;;;;1999.90;999.90;;;;;;;24.46;44.03;100998.66;5054059;28;20222;-69
2023/07/27 00:09:15;;;;;;;1999.90;999.90;;;;;;;25.01;43.63;101004.81;5052328;28;20052;-69
2023/07/27 00:11:40;;;;;;;1999.90;999.90;;;;;;;23.44;47.74;101001.53;5069840;28;20472;-69
2023/07/27 00:14:06;;;;;;;1999.90;999.90;;;;;;;22.91;49.45;100998.50;5071912;28;20032;-69
2023/07/27 00:16:32;;;;;;;1999.90;999.90;;;;;;;23.16;50.61;101000.56;5067522;28;20028;-69
2023/07/27 00:18:57;;;;;;;1999.90;999.90;;;;;;;22.80;52.08;100991.97;5071303;28;20043;-69
2023/07/27 00:21:23;;;;;;;1999.90;999.90;;;;;;;24.06;49.60;100995.91;5054061;28;20024;-70
2023/07/27 00:23:48;;;;;;;1999.90;999.90;;;;;;;23.88;51.10;101004.13;5069640;28;20032;-70
2023/07/27 00:26:13;;;;;;;1999.90;999.90;;;;;;;23.00;54.74;100995.28;5069305;28;20039;-70
2023/07/27 00:28:39;;;;;;;1999.90;999.90;;;;;;;23.03;55.09;100995.09;5069940;28;20032;-70
2023/07/27 00:31:04;;;;;;;1999.90;999.90;;;;;;;22.15;58.61;100993.00;5064390;28;20055;-69
2023/07/27 00:33:30;;;;;;;1999.90;999.90;;;;;;;22.07;60.53;101005.03;5051991;28;20051;-69
2023/07/27 00:35:57;;;;;;;1999.90;999.90;;;;;;;23.07;57.02;100985.97;5043248;28;20041;-70
2023/07/27 00:38:22;;;;;;;1999.90;999.90;;;;;;;22.29;60.19;100988.69;5068467;28;20040;-69
2023/07/27 00:40:48;;;;;;;1999.90;999.90;;;;;;;23.32;55.56;100987.16;5068965;28;20024;-70
2023/07/27 00:43:13;;;;;;;1999.90;999.90;;;;;;;22.41;60.63;100987.16;5068721;28;20032;-69
2023/07/27 00:45:38;;;;;;;1999.90;999.90;;;;;;;23.38;57.97;100976.09;5051711;28;20127;-69
2023/07/27 00:48:04;;;;;;;1999.90;999.90;;;;;;;22.97;59.26;100980.31;5041904;28;20135;-70
2023/07/27 00:50:34;;;;;;;1999.90;999.90;;;;;;;23.09;58.21;100972.53;5047485;28;20017;-68
2023/07/27 00:53:00;;;;;;;1999.90;999.90;;;;;;;22.54;61.16;100966.88;5050964;28;20476;-68
2023/07/27 00:55:25;;;;;;;1999.90;999.90;;;;;;;21.63;67.22;100974.59;5050693;28;20031;-69
2023/07/27 00:57:51;;;;;;;1999.90;999.90;;;;;;;22.61;64.54;100962.03;5083162;28;20052;-68
2023/07/27 01:00:17;;;;;;;1999.90;999.90;;;;;;;23.47;59.53;100948.03;5090246;28;20464;-69
2023/07/27 01:02:42;;;;;;;1999.90;999.90;;;;;;;23.24;61.04;100938.78;5088418;28;20535;-69
2023/07/27 01:05:08;;;;;;;1999.90;999.90;;;;;;;23.10;61.26;100937.78;5089799;28;20023;-69
2023/07/27 01:07:36;;;;;;;1999.90;999.90;;;;;;;22.59;61.78;100932.84;5089507;28;20412;-69
2023/07/27 01:10:01;;;;;;;1999.90;999.90;;;;;;;23.56;59.11;100928.75;5089507;28;20492;-69
2023/07/27 01:12:43;;;;;;;1999.90;999.90;;;;;;;23.27;59.99;100930.59;5088687;28;20028;-69
2023/07/27 01:15:15;;;;;;;1999.90;999.90;;;;;;;23.29;60.44;100926.03;5089139;28;20059;-70
2023/07/27 01:17:56;;;;;;;1999.90;999.90;;;;;;;22.48;64.29;100930.81;5089384;28;20446;-69
2023/07/27 01:20:27;;;;;;;1999.90;999.90;;;;;;;23.35;60.97;100914.97;5088058;28;20487;-69
2023/07/27 01:23:46;;;;;;;1999.90;999.90;;;;;;;23.54;59.36;100910.19;5088590;28;20035;-70
2023/07/27 01:26:36;;;;;;;1999.90;999.90;;;;;;;23.05;60.52;100902.53;4973311;28;20038;-70
2023/07/27 01:29:26;;;;;;;1999.90;999.90;;;;;;;23.76;58.87;100892.81;5089204;28;20388;-70
2023/07/27 01:31:53;;;;;;;1999.90;999.90;;;;;;;23.92;57.56;100887.38;5081790;28;20024;-70
2023/07/27 01:34:29;;;;;;;1999.90;999.90;;;;;;;23.88;57.69;100881.38;5084407;28;20078;-69
2023/07/27 01:36:59;;;;;;;1999.90;999.90;;;;;;;24.03;56.99;100874.16;5083889;28;20032;-70
2023/07/27 01:39:27;;;;;;;1999.90;999.90;;;;;;;23.97;57.62;100879.03;5085677;28;20085;-70
2023/07/27 01:41:54;;;;;;;1999.90;999.90;;;;;;;23.91;57.60;100864.28;5087278;28;20582;-70
2023/07/27 01:44:22;;;;;;;1999.90;999.90;;;;;;;23.79;58.21;100868.59;5088325;28;20443;-70
2023/07/27 01:46:50;;;;;;;1999.90;999.90;;;;;;;23.90;57.44;100851.06;5085713;28;20469;-70
2023/07/27 01:49:17;;;;;;;1999.90;999.90;;;;;;;24.13;57.36;100852.19;5085920;28;20020;-70
2023/07/27 01:51:43;;;;;;;1999.90;999.90;;;;;;;24.50;55.54;100841.69;5080620;28;20032;-71
2023/07/27 01:54:10;;;;;;;1999.90;999.90;;;;;;;23.80;57.33;100850.78;5076257;28;20038;-70
2023/07/27 01:56:37;;;;;;;1999.90;999.90;;;;;;;23.92;57.27;100843.78;5084172;28;20032;-69
2023/07/27 01:59:03;;;;;;;1999.90;999.90;;;;;;;24.13;56.62;100842.38;5089155;28;20031;-70
2023/07/27 02:01:30;;;;;;;1999.90;999.90;;;;;;;24.21;56.13;100834.69;5069526;28;20037;-70
2023/07/27 02:03:56;;;;;;;1999.90;999.90;;;;;;;24.55;55.13;100826.19;5067090;28;20038;-70
2023/07/27 02:06:22;;;;;;;1999.90;999.90;;;;;;;24.00;56.58;100822.78;5083761;28;20039;-71
2023/07/27 02:08:47;;;;;;;1999.90;999.90;;;;;;;24.03;56.96;100825.28;5086068;28;20388;-70
2023/07/27 02:11:16;;;;;;;1999.90;999.90;;;;;;;23.63;58.10;100806.50;5089012;28;20038;-70
2023/07/27 02:13:54;;;;;;;1999.90;999.90;;;;;;;23.54;59.62;100808.81;5087743;28;20085;-70
2023/07/27 02:16:40;;;;;;;1999.90;999.90;;;;;;;24.12;56.92;100803.28;5077135;28;20028;-69
2023/07/27 02:19:07;;;;;;;1999.90;999.90;;;;;;;23.83;58.02;100798.03;5072765;28;20075;-69
2023/07/27 02:21:37;;;;;;;1999.90;999.90;;;;;;;23.06;62.51;100789.66;5076544;28;20166;-70
2023/07/27 02:24:04;;;;;;;1999.90;999.90;;;;;;;23.67;59.56;100781.34;5078560;28;20103;-70
2023/07/27 02:26:30;;;;;;;1999.90;999.90;;;;;;;22.78;62.17;100766.53;5083352;28;20036;-70
2023/07/27 02:28:56;;;;;;;1999.90;999.90;;;;;;;23.61;60.19;100763.94;5074053;28;20029;-70
2023/07/27 02:31:23;;;;;;;1999.90;999.90;;;;;;;23.48;59.95;100763.88;5079441;28;20533;-70
2023/07/27 02:33:48;;;;;;;1999.90;999.90;;;;;;;23.49;60.47;100748.72;5084156;28;20108;-69
2023/07/27 02:36:14;;;;;;;1999.90;999.90;;;;;;;23.72;60.27;100758.72;5082597;28;20103;-70
2023/07/27 02:38:39;;;;;;;1999.90;999.90;;;;;;;23.37;61.37;100737.06;5075252;28;20028;-69
2023/07/27 02:41:05;;;;;;;1999.90;999.90;;;;;;;23.71;59.46;100734.81;5076395;28;20169;-70
2023/07/27 02:43:30;;;;;;;1999.90;999.90;;;;;;;23.50;60.33;100721.97;5085110;28;20036;-70
2023/07/27 02:45:59;;;;;;;1999.90;999.90;;;;;;;23.43;61.17;100720.66;5086258;28;20050;-70
2023/07/27 02:48:26;;;;;;;1999.90;999.90;;;;;;;23.33;62.36;100708.91;5085487;28;20503;-70
2023/07/27 02:50:52;;;;;;;1999.90;999.90;;;;;;;23.42;62.35;100708.28;5073262;28;20021;-70
2023/07/27 02:53:18;;;;;;;1999.90;999.90;;;;;;;23.42;60.85;100708.28;5087513;28;20028;-70
2023/07/27 02:56:00;;;;;;;1999.90;999.90;;;;;;;22.70;65.54;100697.78;5079357;28;20236;-70
2023/07/27 02:58:26;;;;;;;1999.90;999.90;;;;;;;23.26;62.95;100692.44;5087105;28;20035;-69
2023/07/27 03:00:57;;;;;;;1999.90;999.90;;;;;;;23.41;62.38;100695.91;5087732;28;20032;-70
2023/07/27 03:03:23;;;;;;;1999.90;999.90;;;;;;;23.32;62.15;100686.69;5070047;28;20031;-70
2023/07/27 03:05:56;;;;;;;1999.90;999.90;;;;;;;22.95;63.62;100677.56;5084084;28;20032;-70
2023/07/27 03:08:22;;;;;;;1999.90;999.90;;;;;;;22.62;65.03;100673.44;5087483;28;20015;-70
2023/07/27 03:10:47;;;;;;;1999.90;999.90;;;;;;;23.05;62.99;100660.00;5086735;28;20398;-70
2023/07/27 03:13:13;;;;;;;1999.90;999.90;;;;;;;22.79;64.41;100662.56;5087811;28;20468;-70
2023/07/27 03:15:40;;;;;;;1999.90;999.90;;;;;;;22.19;67.31;100668.94;5071380;28;20804;-70
2023/07/27 03:18:06;;;;;;;1999.90;999.90;;;;;;;22.58;65.31;100663.94;5068937;28;20115;-70
2023/07/27 03:20:38;;;;;;;1999.90;999.90;;;;;;;23.29;62.37;100656.72;5069370;28;20035;-70
2023/07/27 03:23:04;;;;;;;1999.90;999.90;;;;;;;23.32;61.89;100656.53;5069306;28;20025;-70
2023/07/27 03:25:37;;;;;;;1999.90;999.90;;;;;;;22.76;62.28;100649.41;5084155;28;20047;-70
2023/07/27 03:28:03;;;;;;;;;;;;;;;22.59;63.72;100650.50;5070888;28;20062;-71
2023/07/27 03:30:28;;;;;;;1999.90;999.90;;;;;;;22.64;65.44;100636.88;5068751;28;19934;-71
2023/07/27 03:32:54;;;;;;;1999.90;999.90;;;;;;;23.07;61.94;100636.78;5076451;28;20057;-70
2023/07/27 03:35:20;;;;;;;1999.90;999.90;;;;;;;23.08;63.65;100641.16;5068051;28;20121;-70
2023/07/27 03:37:45;;;;;;;1999.90;999.90;;;;;;;22.24;68.21;100618.06;5060748;28;20476;-70
2023/07/27 03:40:11;;;;;;;1999.90;999.90;;;;;;;21.92;68.82;100619.13;5070232;28;20035;-71
2023/07/27 03:42:36;;;;;;;1999.90;999.90;;;;;;;22.70;64.54;100617.88;5064453;28;20115;-70
2023/07/27 03:45:02;;;;;;;1999.90;999.90;;;;;;;22.24;66.56;100618.06;5082708;28;20032;-71
2023/07/27 03:47:27;;;;;;;1999.90;999.90;;;;;;;22.92;64.50;100613.81;5069428;28;20040;-70
2023/07/27 03:49:53;;;;;;;1999.90;999.90;;;;;;;21.70;73.90;100606.25;5067952;28;20471;-70
2023/07/27 03:52:18;;;;;;;1999.90;999.90;;;;;;;21.80;73.50;100598.59;5077192;28;20115;-71
2023/07/27 03:54:44;;;;;;;1999.90;999.90;;;;;;;21.82;73.72;100597.53;5083507;28;20024;-70
2023/07/27 03:57:09;;;;;;;1999.90;999.90;;;;;;;21.54;74.22;100602.81;5074122;28;20415;-70
2023/07/27 03:59:35;;;;;;;1999.90;999.90;;;;;;;21.66;72.38;100600.25;5085311;28;20040;-71
2023/07/27 04:02:00;;;;;;;1999.90;999.90;;;;;;;22.81;67.05;100586.03;5085516;28;20094;-70
2023/07/27 04:04:25;;;;;;;1999.90;999.90;;;;;;;23.15;63.26;100591.84;5083615;28;20035;-70
2023/07/27 04:06:51;;;;;;;1999.90;999.90;;;;;;;22.99;65.82;100583.13;5075315;28;20028;-71
2023/07/27 04:09:16;;;;;;;1999.90;999.90;;;;;;;23.01;65.69;100581.19;5077021;28;20028;-71
2023/07/27 04:11:42;;;;;;;1999.90;999.90;;;;;;;22.86;65.65;100575.06;5081530;28;20042;-70
2023/07/27 04:14:07;;;;;;;1999.90;999.90;;;;;;;22.90;65.71;100562.41;5078863;28;20144;-71
2023/07/27 04:16:36;;;;;;;1999.90;999.90;;;;;;;22.87;65.35;100564.34;5079131;28;20063;-70
2023/07/27 04:19:02;;;;;;;1999.90;999.90;;;;;;;23.21;63.09;100562.09;5080738;28;20024;-70
2023/07/27 04:21:27;;;;;;;1999.90;999.90;;;;;;;22.43;66.13;100560.06;5071924;28;20063;-71
2023/07/27 04:23:53;;;;;;;1999.90;999.90;;;;;;;23.13;65.19;100559.09;5085360;28;20089;-71
2023/07/27 04:26:19;;;;;;;1999.90;999.90;;;;;;;22.89;66.54;100556.25;5086763;28;20403;-71
2023/07/27 04:28:44;;;;;;;1999.90;999.90;;;;;;;22.98;66.04;100558.28;5077869;28;20053;-71
2023/07/27 04:31:10;;;;;;;1999.90;999.90;;;;;;;22.28;68.67;100550.38;5092751;28;20437;-71
2023/07/27 04:33:35;;;;;;;1999.90;999.90;;;;;;;22.15;69.80;100551.16;5091150;28;20036;-71
2023/07/27 04:36:01;;;;;;;1999.90;999.90;;;;;;;22.62;68.62;100543.78;5085684;28;20115;-71
2023/07/27 04:38:26;;;;;;;1999.90;999.90;;;;;;;22.56;67.23;100548.63;5087381;28;20408;-71
2023/07/27 04:40:52;;;;;;;1999.90;999.90;;;;;;;22.86;67.13;100540.44;5087438;28;20035;-71
2023/07/27 04:43:18;;;;;;;1999.90;999.90;;;;;;;22.32;68.49;100544.75;5082580;28;20038;-71
2023/07/27 04:45:44;;;;;;;1999.90;999.90;;;;;;;22.84;67.96;100537.88;5089381;28;20036;-71
2023/07/27 04:48:09;;;;;;;1999.90;999.90;;;;;;;22.92;66.89;100534.72;5090466;28;20457;-71
2023/07/27 04:50:36;;;;;;;1999.90;999.90;;;;;;;23.20;65.30;100528.44;5089422;28;20040;-71
2023/07/27 04:53:01;;;;;;;1999.90;999.90;;;;;;;22.03;73.37;100523.50;5091287;28;20051;-72
2023/07/27 04:55:27;;;;;;;1999.90;999.90;;;;;;;22.48;68.41;100523.38;5083817;28;20472;-71
2023/07/27 04:57:52;;;;;;;1999.90;999.90;;;;;;;22.71;70.62;100518.34;5071435;28;20052;-71
2023/07/27 05:00:18;;;;;;;1999.90;999.90;;;;;;;22.06;72.85;100514.47;5061135;28;20366;-71
2023/07/27 05:02:44;;;;;;;1999.90;999.90;;;;;;;21.76;74.39;100506.63;5051527;28;20036;-71
2023/07/27 05:05:09;;;;;;;1999.90;999.90;;;;;;;21.91;75.90;100512.78;5050757;28;20550;-71
2023/07/27 05:07:35;;;;;;;1999.90;999.90;;;;;;;22.63;71.93;100507.34;5034756;28;20432;-70
2023/07/27 05:10:00;;;;;;;1999.90;999.90;;;;;;;23.18;69.85;100503.66;5071854;28;20103;-71
2023/07/27 05:12:28;;;;;;;1999.90;999.90;;;;;;;22.27;72.89;100500.75;5053085;28;20035;-71
2023/07/27 05:14:53;;;;;;;1999.90;999.90;;;;;;;22.76;71.09;100488.75;5046226;28;20021;-71
2023/07/27 05:17:19;;;;;;;1999.90;999.90;;;;;;;22.65;70.55;100490.28;5066496;28;20047;-72
2023/07/27 05:19:44;;;;;;;1999.90;999.90;;;;;;;22.75;71.98;100495.88;5070708;28;20370;-71
2023/07/27 05:22:10;;;;;;;1999.90;999.90;;;;;;;22.48;73.51;100483.41;5071712;28;20028;-71
2023/07/27 05:24:35;;;;;;;1999.90;999.90;;;;;;;22.56;73.66;100490.03;5067438;28;20047;-70
2023/07/27 05:27:01;;;;;;;1999.90;999.90;;;;;;;22.87;72.07;100483.53;5039110;28;20078;-71
2023/07/27 05:29:26;;;;;;;1999.90;999.90;;;;;;;22.81;73.07;100484.81;5050420;28;20630;-71
2023/07/27 05:31:52;;;;;;;1999.90;999.90;;;;;;;22.64;73.53;100477.06;5051955;28;20074;-71
2023/07/27 05:34:17;;;;;;;1999.90;999.90;;;;;;;22.43;74.73;100474.03;5048495;28;20438;-71
2023/07/27 05:36:42;;;;;;;1999.90;999.90;;;;;;;22.90;73.01;100472.66;5039750;28;20027;-72
2023/07/27 05:39:08;;;;;;;1999.90;999.90;;;;;;;22.64;76.12;100472.63;5050315;28;20025;-71
2023/07/27 05:41:37;;;;;;;1999.90;999.90;;;;;;;22.89;75.50;100476.31;5061583;28;20032;-70
2023/07/27 05:44:03;;;;;;;1999.90;999.90;;;;;;;22.56;75.49;100466.06;5053111;28;20548;-71
2023/07/27 05:46:28;;;;;;;1999.90;999.90;;;;;;;23.30;72.07;100454.00;5058434;28;20130;-71
2023/07/27 05:48:54;;;;;;;1999.90;999.90;;;;;;;23.18;74.32;100454.84;5051069;28;20033;-70
2023/07/27 05:51:19;;;;;;;1999.90;999.90;;;;;;;23.32;74.95;100453.88;5061532;28;20053;-71
2023/07/27 05:53:45;;;;;;;1999.90;999.90;;;;;;;23.46;72.10;100456.41;5044315;28;20332;-71
2023/07/27 05:56:10;;;;;;;1999.90;999.90;;;;;;;23.06;74.91;100451.16;5055972;28;20043;-72
2023/07/27 05:58:36;;;;;;;1999.90;999.90;;;;;;;22.98;76.23;100448.16;5089289;28;20027;-72
2023/07/27 06:01:03;;;;;;;1999.90;999.90;;;;;;;23.25;74.64;100444.59;5082116;28;20448;-72
2023/07/27 06:03:29;;;;;;;1999.90;999.90;;;;;;;22.96;77.09;100444.78;5083151;28;20028;-72
2023/07/27 06:05:55;;;;;;;1999.90;999.90;;;;;;;23.28;74.72;100439.91;5085596;28;20032;-72
2023/07/27 06:08:20;;;;;;;1999.90;999.90;;;;;;;22.76;75.84;100449.63;5088550;28;20449;-72
2023/07/27 06:10:46;;;;;;;1999.90;999.90;;;;;;;22.09;81.67;100450.44;5086810;28;20020;-72
2023/07/27 06:13:11;;;;;;;1999.90;999.90;;;;;;;21.85;85.89;100448.38;5074135;28;20028;-71
2023/07/27 06:15:37;;;;;;;1999.90;999.90;;;;;;;22.85;82.84;100443.69;5083404;28;20028;-72
2023/07/27 06:18:02;;;;;;;1999.90;999.90;;;;;;;22.31;85.49;100446.34;5088274;28;20053;-72
2023/07/27 06:20:28;;;;;;;1999.90;999.90;;;;;;;23.07;79.30;100436.88;5087319;28;20020;-72
2023/07/27 06:22:53;;;;;;;1999.90;999.90;;;;;;;22.93;84.59;100439.63;5071335;28;20098;-72
2023/07/27 06:25:18;;;;;;;1999.90;999.90;;;;;;;22.80;82.40;100445.78;5071270;28;20377;-72
2023/07/27 06:27:44;;;;;;;1999.90;999.90;;;;;;;22.83;83.33;100429.63;5069884;28;20111;-72
2023/07/27 06:30:12;;;;;;;1999.90;999.90;;;;;;;22.26;90.04;100440.50;5076547;28;20028;-72
2023/07/27 06:32:40;;;;;;;1999.90;999.90;;;;;;;23.86;79.36;100429.59;5068839;28;20115;-72
2023/07/27 06:35:05;;;;;;;1999.90;999.90;;;;;;;23.20;80.90;100429.78;5069697;28;20121;-72
2023/07/27 06:37:31;;;;;;;1999.90;999.90;;;;;;;23.49;77.80;100426.88;5069543;28;20544;-71
2023/07/27 06:39:56;;;;;;;1999.90;999.90;;;;;;;24.18;76.31;100423.75;5077837;28;20020;-72
2023/07/27 06:42:22;;;;;;;1999.90;999.90;;;;;;;24.43;74.46;100421.03;5088565;28;20039;-72
2023/07/27 06:44:47;;;;;;;1999.90;999.90;;;;;;;23.30;82.35;100411.34;5086074;28;20494;-71
2023/07/27 06:47:12;;;;;;;1999.90;999.90;;;;;;;23.21;81.46;100423.47;5082573;28;20427;-72
2023/07/27 06:49:38;;;;;;;1999.90;999.90;;;;;;;23.19;82.64;100422.75;5073218;28;20024;-72
2023/07/27 06:52:04;;;;;;;1999.90;999.90;;;;;;;23.79;79.19;100428.31;5070511;28;20384;-72
2023/07/27 06:54:29;;;;;;;1999.90;999.90;;;;;;;23.18;87.61;100428.19;5070237;28;20032;-72
2023/07/27 06:56:55;;;;;;;1999.90;999.90;;;;;;;22.79;89.82;100422.78;5070202;28;20043;-72
2023/07/27 06:59:20;;;;;;;1999.90;999.90;;;;;;;23.25;84.73;100429.47;5086310;28;20035;-72
2023/07/27 07:01:46;;;;;;;1999.90;999.90;;;;;;;23.44;85.66;100426.34;5081069;28;20030;-72
2023/07/27 07:04:11;;;;;;;1999.90;999.90;;;;;;;23.10;84.06;100431.34;5072763;28;20050;-71
2023/07/27 07:06:37;;;;;;;1999.90;999.90;;;;;;;23.26;88.21;100415.19;5087038;28;20027;-72
2023/07/27 07:09:02;;;;;;;1999.90;999.90;;;;;;;23.65;84.00;100417.78;5089877;28;20426;-71
2023/07/27 07:11:28;;;;;;;1999.90;999.90;;;;;;;23.87;82.96;100420.59;5088104;28;20027;-71
2023/07/27 07:13:53;;;;;;;1999.90;999.90;;;;;;;23.43;86.24;100416.66;5088585;28;20028;-70
2023/07/27 07:16:18;;;;;;;1999.90;999.90;;;;;;;24.32;82.42;100425.38;5088147;28;20444;-70
2023/07/27 07:18:44;;;;;;;1999.90;999.90;;;;;;;24.53;79.95;100422.91;5088315;28;20028;-70
2023/07/27 07:21:10;;;;;;;1999.90;999.90;;;;;;;24.48;77.13;100413.53;5089756;28;20442;-70
2023/07/27 07:23:35;;;;;;;1999.90;999.90;;;;;;;24.72;75.73;100416.22;5088809;28;20102;-69
2023/07/27 07:26:01;;;;;;;1999.90;999.90;;;;;;;24.09;80.75;100421.75;5089145;28;20039;-70
2023/07/27 07:28:26;;;;;;;1999.90;999.90;;;;;;;25.12;74.50;100418.47;5089381;28;20077;-71
2023/07/27 07:30:52;;;;;;;1999.90;999.90;;;;;;;24.90;75.08;100420.13;5089310;28;20107;-71
2023/07/27 07:33:17;;;;;;;1999.90;999.90;;;;;;;24.71;74.58;100411.84;5087845;28;20020;-71
2023/07/27 07:35:42;;;;;;;1999.90;999.90;;;;;;;23.86;79.61;100424.25;5088014;28;20465;-70
2023/07/27 07:38:08;;;;;;;1999.90;999.90;;;;;;;23.43;82.55;100419.31;5087629;28;20024;-70
2023/07/27 07:40:34;;;;;;;1999.90;999.90;;;;;;;24.35;80.59;100410.94;5089491;28;20030;-70
2023/07/27 07:42:59;;;;;;;1999.90;999.90;;;;;;;24.97;76.34;100400.97;5089265;28;20020;-70
2023/07/27 07:45:25;;;;;;;1999.90;999.90;;;;;;;24.79;75.92;100404.09;5089048;28;20593;-71
2023/07/27 07:47:50;;;;;;;1999.90;999.90;;;;;;;24.03;80.01;100403.53;5087660;28;20503;-71
2023/07/27 07:50:16;;;;;;;1999.90;999.90;;;;;;;23.97;83.68;100409.28;5089587;28;20032;-70
2023/07/27 07:52:41;;;;;;;1999.90;999.90;;;;;;;24.21;81.55;100406.66;5092756;28;20024;-68
2023/07/27 07:55:07;;;;;;;1999.90;999.90;;;;;;;24.53;81.47;100411.38;5091948;28;20163;-70
2023/07/27 07:57:34;;;;;;;1999.90;999.90;;;;;;;24.59;78.47;100410.91;5077396;28;20036;-70
2023/07/27 08:00:00;;;;;;;1999.90;999.90;;;;;;;24.79;76.82;100400.56;5054217;28;20024;-70
2023/07/27 08:02:26;;;;;;;1999.90;999.90;;;;;;;24.87;77.30;100399.00;5055111;28;20143;-70
2023/07/27 08:04:52;;;;;;;1999.90;999.90;;;;;;;24.07;79.58;100410.34;5072443;28;20500;-70
2023/07/27 08:07:17;;;;;;;1999.90;999.90;;;;;;;23.63;87.12;100406.34;5054405;28;20042;-72
2023/07/27 08:09:43;;;;;;;1999.90;999.90;;;;;;;24.59;79.03;100399.38;5055074;28;20021;-72
2023/07/27 08:12:08;;;;;;;1999.90;999.90;;;;;;;24.76;80.26;100396.31;5073570;28;20096;-71
2023/07/27 08:14:36;;;;;;;1999.90;999.90;;;;;;;24.43;80.67;100400.53;5072355;28;20028;-71
2023/07/27 08:17:02;;;;;;;1999.90;999.90;;;;;;;24.73;82.67;100391.22;5055253;28;20031;-71
2023/07/27 08:19:27;;;;;;;1999.90;999.90;;;;;;;24.55;79.71;100396.94;5072359;28;20028;-71
2023/07/27 08:21:53;;;;;;;1999.90;999.90;;;;;;;24.34;79.79;100391.38;5053681;28;20032;-69
2023/07/27 08:24:18;;;;;;;1999.90;999.90;;;;;;;24.41;80.86;100399.78;5072725;28;20108;-71
2023/07/27 08:26:44;;;;;;;1999.90;999.90;;;;;;;24.49;82.85;100393.88;5072144;28;20055;-71
2023/07/27 08:29:09;;;;;;;1999.90;999.90;;;;;;;24.52;81.24;100389.19;5072067;28;20387;-71
2023/07/27 08:31:34;;;;;;;1999.90;999.90;;;;;;;24.14;81.23;100390.22;5054178;28;20025;-71
2023/07/27 08:34:00;;;;;;;1999.90;999.90;;;;;;;25.03;78.97;100384.44;5072616;28;20021;-71
2023/07/27 08:36:25;;;;;;;1999.90;999.90;;;;;;;24.76;78.41;100388.28;5054066;28;20020;-71
2023/07/27 08:38:51;;;;;;;1999.90;999.90;;;;;;;23.58;86.71;100393.38;5053707;28;20477;-71
2023/07/27 08:41:16;;;;;;;1999.90;999.90;;;;;;;24.45;85.13;100392.41;5054585;28;20027;-70
2023/07/27 08:43:42;;;;;;;1999.90;999.90;;;;;;;24.54;81.73;100376.53;5053104;28;20016;-70
2023/07/27 08:46:08;;;;;;;1999.90;999.90;;;;;;;25.24;76.70;100385.44;5054088;28;20028;-71
2023/07/27 08:48:37;;;;;;;1999.90;999.90;;;;;;;24.41;82.33;100389.13;5071028;28;20095;-69
2023/07/27 08:51:03;;;;;;;1999.90;999.90;;;;;;;24.87;80.80;100382.97;5054028;28;20020;-70
2023/07/27 08:53:30;;;;;;;1999.90;999.90;;;;;;;23.91;84.92;100388.41;5053999;28;20485;-70
2023/07/27 08:55:58;;;;;;;1999.90;999.90;;;;;;;24.77;79.13;100387.34;5070518;28;20090;-70
2023/07/27 08:58:23;;;;;;;1999.90;999.90;;;;;;;24.90;80.11;100392.56;5053888;28;20021;-71
2023/07/27 09:00:49;;;;;;;1999.90;999.90;;;;;;;24.47;80.43;100394.00;5071065;28;20424;-70
2023/07/27 09:03:14;;;;;;;1999.90;999.90;;;;;;;23.73;87.27;100410.09;5070246;28;20039;-71
2023/07/27 09:05:44;;;;;;;1999.90;999.90;;;;;;;24.54;82.45;100397.91;5071222;28;20538;-71
2023/07/27 09:08:14;;;;;;;1999.90;999.90;;;;;;;24.39;80.13;100399.91;5054416;28;20016;-71
2023/07/27 09:10:41;;;;;;;1999.90;999.90;;;;;;;24.92;84.33;100395.13;5053091;28;20032;-71
2023/07/27 09:13:07;;;;;;;1999.90;999.90;;;;;;;24.81;83.85;100399.50;5054005;28;20476;-71
2023/07/27 09:15:35;;;;;;;1999.90;999.90;;;;;;;25.49;78.83;100399.56;5054603;28;20027;-71
2023/07/27 09:18:02;;;;;;;1999.90;999.90;;;;;;;25.60;77.84;100396.03;5071304;28;20021;-72
2023/07/27 09:20:29;;;;;;;1999.90;999.90;;;;;;;25.99;74.98;100400.94;5053876;28;20029;-71
2023/07/27 09:22:56;;;;;;;1999.90;999.90;;;;;;;25.23;77.69;100393.56;5053453;28;20024;-71
2023/07/27 09:25:23;;;;;;;1999.90;999.90;;;;;;;25.57;77.22;100398.97;5053141;28;20468;-71
2023/07/27 09:27:54;;;;;;;1999.90;999.90;;;;;;;25.51;76.84;100392.28;5053121;28;20021;-71
2023/07/27 09:30:21;;;;;;;1999.90;999.90;;;;;;;26.17;73.84;100394.13;5053977;28;20025;-71
2023/07/27 09:32:48;;;;;;;1999.90;999.90;;;;;;;24.31;82.70;100391.63;5070516;28;20032;-71
2023/07/27 09:35:14;;;;;;;1999.90;999.90;;;;;;;24.60;83.85;100390.41;5071554;28;20032;-70
2023/07/27 09:37:49;;;;;;;1999.90;999.90;;;;;;;25.40;79.42;100384.25;5052167;28;20168;-70
2023/07/27 09:40:22;;;;;;;1999.90;999.90;;;;;;;25.13;80.82;100389.91;5053174;28;20035;-70
2023/07/27 09:42:48;;;;;;;1999.90;999.90;;;;;;;24.39;83.88;100404.41;5071019;28;20064;-70
2023/07/27 09:45:14;;;;;;;1999.90;999.90;;;;;;;25.22;79.42;100397.22;5052020;28;20056;-70
2023/07/27 09:47:40;;;;;;;1999.90;999.90;;;;;;;24.89;82.77;100397.06;5052424;28;20074;-70
2023/07/27 09:50:07;;;;;;;1999.90;999.90;;;;;;;25.22;77.41;100387.38;5053141;28;20024;-71
2023/07/27 09:52:35;;;;;;;1999.90;999.90;;;;;;;25.04;78.17;100395.00;5070290;28;20025;-70
2023/07/27 09:55:01;;;;;;;1999.90;999.90;;;;;;;24.78;81.68;100393.50;5052842;28;20395;-71
2023/07/27 09:57:27;;;;;;;1999.90;999.90;;;;;;;25.04;79.31;100394.16;5070456;28;20553;-71
2023/07/27 09:59:53;;;;;;;1999.90;999.90;;;;;;;25.41;77.75;100393.97;5051283;28;20043;-71
2023/07/27 10:02:20;;;;;;;1999.90;999.90;;;;;;;24.93;82.46;100402.19;5070738;28;20025;-71
2023/07/27 10:04:49;;;;;;;1999.90;999.90;;;;;;;24.88;83.19;100392.69;5070126;28;20057;-71
2023/07/27 10:07:16;;;;;;;1999.90;999.90;;;;;;;24.41;87.65;100405.13;5070273;28;20026;-70
2023/07/27 10:09:42;;;;;;;1999.90;999.90;;;;;;;24.56;87.46;100401.34;5070376;28;20524;-71
2023/07/27 10:12:07;;;;;;;1999.90;999.90;;;;;;;25.27;81.20;100391.53;5070763;28;20028;-71
2023/07/27 10:14:38;;;;;;;1999.90;999.90;;;;;;;25.84;78.16;100387.84;5051554;28;20029;-71
2023/07/27 10:17:06;;;;;;;1999.90;999.90;;;;;;;25.33;81.97;100383.03;5052378;28;20370;-70
2023/07/27 10:19:52;;;;;;;1999.90;999.90;;;;;;;24.65;84.06;100383.78;5052338;28;20029;-70
2023/07/27 10:22:19;;;;;;;1999.90;999.90;;;;;;;25.54;81.75;100389.34;5051872;28;20060;-70
2023/07/27 10:24:51;;;;;;;1999.90;999.90;;;;;;;25.05;83.25;100390.53;5051747;28;20029;-70
2023/07/27 10:27:20;;;;;;;1999.90;999.90;;;;;;;25.85;81.92;100396.72;5069536;28;20024;-69
2023/07/27 10:29:48;;;;;;;1999.90;999.90;;;;;;;25.10;82.39;100399.06;5069155;28;20032;-70
2023/07/27 10:32:14;;;;;;;1999.90;999.90;;;;;;;26.33;77.27;100393.66;5052295;28;20025;-70
2023/07/27 10:34:40;;;;;;;1999.90;999.90;;;;;;;26.54;76.65;100391.03;5068911;28;20480;-69
2023/07/27 10:37:08;;;;;;;1999.90;999.90;;;;;;;26.15;78.23;100390.69;5051918;28;20035;-69
2023/07/27 10:39:44;;;;;;;1999.90;999.90;;;;;;;25.91;80.54;100394.41;5051418;28;20027;-69
2023/07/27 10:42:22;;;;;;;1999.90;999.90;;;;;;;27.29;71.60;100390.09;5051209;28;20480;-70
2023/07/27 10:44:55;;;;;;;1999.90;999.90;;;;;;;26.31;76.41;100389.41;5069257;28;20121;-70
2023/07/27 10:47:38;;;;;;;1999.90;999.90;;;;;;;25.97;75.03;100386.84;5069736;28;20107;-70